createdAt,value
2022-11-27T00:01:31.745Z,102284.78
2022-11-27T00:03:59.491Z,102295.91
2022-11-27T00:06:29.750Z,102289.19
2022-11-27T00:08:57.740Z,102291.25
2022-11-27T00:11:26.876Z,102287.06
2022-11-27T00:13:56.294Z,102291.03
2022-11-27T00:16:25.468Z,102289.97
2022-11-27T00:18:53.667Z,102285.34
2022-11-27T00:21:24.027Z,102283.06
2022-11-27T00:23:52.798Z,102286.84
2022-11-27T00:26:20.704Z,102275.97
2022-11-27T00:28:48.621Z,102273.25
2022-11-27T00:31:19.526Z,102278.47
2022-11-27T00:33:47.623Z,102273.63
2022-11-27T00:36:16.113Z,102280.34
2022-11-27T00:38:43.741Z,102282.63
2022-11-27T00:41:13.795Z,102281.19
2022-11-27T00:43:45.441Z,102280.75
2022-11-27T00:46:13.625Z,102285.41
2022-11-27T00:48:42.811Z,102276.38
2022-11-27T00:51:13.784Z,102275.56
2022-11-27T00:53:42.019Z,102275.56
2022-11-27T00:56:11.107Z,102272.81
2022-11-27T00:58:38.734Z,102280.38
2022-11-27T01:01:08.336Z,102276.00
2022-11-27T01:03:36.419Z,102269.06
2022-11-27T01:06:06.437Z,102275.56
2022-11-27T01:08:34.806Z,102281.44
2022-11-27T01:11:02.872Z,102273.69
2022-11-27T01:13:33.251Z,102272.84
2022-11-27T01:16:01.934Z,102276.41
2022-11-27T01:18:30.369Z,102276.00
2022-11-27T01:20:58.098Z,102274.75
2022-11-27T01:23:27.344Z,102275.56
2022-11-27T01:25:55.067Z,102272.41
2022-11-27T01:28:24.376Z,102258.78
2022-11-27T01:30:52.541Z,102247.06
2022-11-27T01:33:20.919Z,102247.69
2022-11-27T01:35:55.791Z,102251.03
2022-11-27T01:38:23.781Z,102257.94
2022-11-27T01:40:58.032Z,102266.56
2022-11-27T01:43:41.897Z,102253.56
2022-11-27T01:46:23.143Z,102254.38
2022-11-27T01:48:53.155Z,102242.03
2022-11-27T01:51:21.855Z,102237.41
2022-11-27T01:53:50.121Z,102225.69
2022-11-27T01:56:19.809Z,102229.22
2022-11-27T01:58:48.159Z,102219.63
2022-11-27T02:01:15.936Z,102211.19
2022-11-27T02:03:43.746Z,102205.75
2022-11-27T02:06:13.376Z,102207.22
2022-11-27T02:08:41.962Z,102214.16
2022-11-27T02:11:16.355Z,102212.69
2022-11-27T02:13:52.161Z,102212.06
2022-11-27T02:16:29.930Z,102214.59
2022-11-27T02:19:01.255Z,102208.72
2022-11-27T02:21:37.905Z,102198.88
2022-11-27T02:24:32.427Z,102199.50
2022-11-27T02:27:51.620Z,102203.09
2022-11-27T02:30:20.969Z,102200.56
2022-11-27T02:32:53.319Z,102202.47
2022-11-27T02:35:27.780Z,102198.88
2022-11-27T02:38:00.817Z,102188.81
2022-11-27T02:40:32.598Z,102201.00
2022-11-27T02:43:04.414Z,102203.31
2022-11-27T02:45:36.446Z,102201.41
2022-11-27T02:48:05.681Z,102205.81
2022-11-27T02:50:36.702Z,102209.38
2022-11-27T02:53:08.355Z,102205.81
2022-11-27T02:55:39.248Z,102204.97
2022-11-27T02:58:11.703Z,102209.38
2022-11-27T03:00:41.922Z,102202.63
2022-11-27T03:03:13.992Z,102203.06
2022-11-27T03:05:46.917Z,102203.91
2022-11-27T03:08:24.297Z,102199.91
2022-11-27T03:10:58.219Z,102194.91
2022-11-27T03:13:26.896Z,102204.09
2022-11-27T03:16:07.097Z,102191.34
2022-11-27T03:18:40.076Z,102193.03
2022-11-27T03:21:18.654Z,102194.28
2022-11-27T03:23:46.320Z,102203.72
2022-11-27T03:26:14.077Z,102199.72
2022-11-27T03:28:44.393Z,102200.34
2022-11-27T03:31:14.397Z,102210.00
2022-11-27T03:33:42.212Z,102209.63
2022-11-27T03:36:14.960Z,102209.81
2022-11-27T03:38:43.537Z,102211.47
2022-11-27T03:41:20.587Z,102209.81
2022-11-27T03:43:58.332Z,102224.06
2022-11-27T03:46:34.718Z,102220.28
2022-11-27T03:49:14.674Z,102209.81
2022-11-27T03:51:49.522Z,102211.28
2022-11-27T03:54:26.166Z,102209.41
2022-11-27T03:56:59.448Z,102201.44
2022-11-27T03:59:31.230Z,102211.47
2022-11-27T04:02:00.216Z,102207.94
2022-11-27T04:04:27.847Z,102198.53
2022-11-27T04:06:55.512Z,102196.41
2022-11-27T04:09:23.143Z,102195.78
2022-11-27T04:11:50.739Z,102192.66
2022-11-27T04:14:18.441Z,102195.56
2022-11-27T04:16:46.061Z,102198.28
2022-11-27T04:19:15.044Z,102198.50
2022-11-27T04:21:42.759Z,102198.94
2022-11-27T04:24:10.415Z,102193.72
2022-11-27T04:26:38.036Z,102200.19
2022-11-27T04:29:05.687Z,102207.09
2022-11-27T04:31:33.456Z,102212.56
2022-11-27T04:34:01.166Z,102205.88
2022-11-27T04:36:32.548Z,102205.00
2022-11-27T04:39:03.811Z,102212.56
2022-11-27T04:41:31.491Z,102207.94
2022-11-27T04:43:59.106Z,102203.75
2022-11-27T04:46:26.813Z,102207.31
2022-11-27T04:48:54.487Z,102213.19
2022-11-27T04:51:22.173Z,102207.53
2022-11-27T04:53:51.282Z,102206.69
2022-11-27T04:56:19.006Z,102210.84
2022-11-27T04:58:46.706Z,102214.22
2022-11-27T05:01:15.875Z,102213.38
2022-11-27T05:03:43.606Z,102216.53
2022-11-27T05:06:11.271Z,102213.16
2022-11-27T05:08:38.910Z,102215.47
2022-11-27T05:11:11.580Z,102211.69
2022-11-27T05:13:39.309Z,102202.88
2022-11-27T05:16:07.589Z,102207.91
2022-11-27T05:18:35.349Z,102208.31
2022-11-27T05:21:05.226Z,102210.63
2022-11-27T05:23:33.580Z,102206.00
2022-11-27T05:26:01.584Z,102208.94
2022-11-27T05:28:30.565Z,102216.88
2022-11-27T05:30:58.288Z,102221.28
2022-11-27T05:33:26.006Z,102215.38
2022-11-27T05:35:53.638Z,102213.69
2022-11-27T05:38:21.310Z,102214.72
2022-11-27T05:40:49.652Z,102218.69
2022-11-27T05:43:17.343Z,102213.03
2022-11-27T05:45:46.328Z,102212.22
2022-11-27T05:48:13.935Z,102205.72
2022-11-27T05:50:41.742Z,102211.34
2022-11-27T05:53:09.472Z,102217.63
2022-11-27T05:55:37.074Z,102213.81
2022-11-27T05:58:04.710Z,102215.50
2022-11-27T06:00:32.333Z,102219.44
2022-11-27T06:03:01.447Z,102205.41
2022-11-27T06:05:29.185Z,102199.97
2022-11-27T06:07:57.105Z,102211.03
2022-11-27T06:10:24.824Z,102199.75
2022-11-27T06:12:52.407Z,102196.22
2022-11-27T06:15:20.026Z,102190.50
2022-11-27T06:17:49.746Z,102186.13
2022-11-27T06:20:20.220Z,102179.22
2022-11-27T06:22:47.674Z,102176.28
2022-11-27T06:25:15.346Z,102182.72
2022-11-27T06:27:43.010Z,102186.84
2022-11-27T06:30:11.757Z,102176.34
2022-11-27T06:32:39.353Z,102179.06
2022-11-27T06:35:07.945Z,102178.84
2022-11-27T06:37:36.975Z,102176.88
2022-11-27T06:40:06.425Z,102183.97
2022-11-27T06:42:34.069Z,102186.44
2022-11-27T06:45:01.786Z,102188.50
2022-11-27T06:47:29.476Z,102178.69
2022-11-27T06:49:57.081Z,102177.41
2022-11-27T06:52:24.727Z,102177.59
2022-11-27T06:54:53.723Z,102184.03
2022-11-27T06:57:21.355Z,102174.63
2022-11-27T06:59:49.110Z,102184.03
2022-11-27T07:02:17.883Z,102182.34
2022-11-27T07:04:45.916Z,102187.78
2022-11-27T07:07:13.632Z,102192.56
2022-11-27T07:09:41.355Z,102190.69
2022-11-27T07:12:11.147Z,102192.56
2022-11-27T07:14:39.143Z,102192.13
2022-11-27T07:17:07.072Z,102187.09
2022-11-27T07:19:34.857Z,102180.63
2022-11-27T07:22:02.921Z,102170.16
2022-11-27T07:24:30.659Z,102173.13
2022-11-27T07:26:58.364Z,102169.31
2022-11-27T07:29:27.477Z,102170.59
2022-11-27T07:31:55.277Z,102177.75
2022-11-27T07:34:23.133Z,102176.28
2022-11-27T07:36:50.802Z,102172.97
2022-11-27T07:39:33.805Z,102175.25
2022-11-27T07:42:36.403Z,102172.91
2022-11-27T07:44:55.503Z,102164.53
2022-11-27T07:47:23.186Z,102161.75
2022-11-27T07:49:50.944Z,102163.00
2022-11-27T07:52:18.702Z,102161.56
2022-11-27T07:54:46.371Z,102150.31
2022-11-27T07:57:14.059Z,102145.34
2022-11-27T07:59:46.974Z,102142.22
2022-11-27T08:02:16.804Z,102142.22
2022-11-27T08:04:44.819Z,102137.63
2022-11-27T08:07:12.829Z,102146.03
2022-11-27T08:09:40.601Z,102137.88
2022-11-27T08:12:08.506Z,102142.31
2022-11-27T08:14:36.210Z,102145.47
2022-11-27T08:17:03.909Z,102134.81
2022-11-27T08:19:33.004Z,102145.06
2022-11-27T08:22:01.200Z,102139.63
2022-11-27T08:24:28.920Z,102139.84
2022-11-27T08:26:56.590Z,102136.69
2022-11-27T08:29:24.292Z,102127.31
2022-11-27T08:31:52.119Z,102135.25
2022-11-27T08:34:19.843Z,102137.13
2022-11-27T08:36:48.913Z,102143.44
2022-11-27T08:39:16.613Z,102141.34
2022-11-27T08:41:44.304Z,102143.91
2022-11-27T08:44:12.227Z,102141.44
2022-11-27T08:46:40.221Z,102140.63
2022-11-27T08:49:07.905Z,102138.09
2022-11-27T08:51:35.628Z,102146.28
2022-11-27T08:54:05.092Z,102161.59
2022-11-27T08:56:32.826Z,102162.44
2022-11-27T08:59:00.576Z,102161.66
2022-11-27T09:01:29.732Z,102169.19
2022-11-27T09:03:58.238Z,102164.59
2022-11-27T09:06:28.074Z,102162.09
2022-11-27T09:08:57.375Z,102168.00
2022-11-27T09:11:27.700Z,102160.41
2022-11-27T09:13:55.524Z,102153.31
2022-11-27T09:16:24.144Z,102161.50
2022-11-27T09:18:53.993Z,102153.75
2022-11-27T09:21:23.635Z,102147.53
2022-11-27T09:23:54.940Z,102153.81
2022-11-27T09:26:23.838Z,102157.38
2022-11-27T09:28:53.688Z,102148.41
2022-11-27T09:31:23.183Z,102153.84
2022-11-27T09:33:51.188Z,102140.50
2022-11-27T09:36:20.603Z,102133.81
2022-11-27T09:38:48.942Z,102132.53
2022-11-27T09:41:36.515Z,102131.50
2022-11-27T09:44:17.425Z,102129.84
2022-11-27T09:46:45.620Z,102129.22
2022-11-27T09:49:19.511Z,102126.69
2022-11-27T09:51:54.950Z,102131.72
2022-11-27T09:54:26.872Z,102126.91
2022-11-27T09:56:57.006Z,102125.22
2022-11-27T09:59:31.687Z,102116.84
2022-11-27T10:01:59.473Z,102119.56
2022-11-27T10:04:30.388Z,102126.41
2022-11-27T10:07:20.131Z,102124.50
2022-11-27T10:10:05.016Z,102123.88
2022-11-27T10:12:43.175Z,102113.41
2022-11-27T10:15:16.996Z,102114.19
2022-11-27T10:17:52.166Z,102112.09
2022-11-27T10:20:29.484Z,102112.47
2022-11-27T10:23:04.097Z,102109.97
2022-11-27T10:25:39.876Z,102115.16
2022-11-27T10:28:19.177Z,102114.09
2022-11-27T10:30:53.820Z,102109.66
2022-11-27T10:33:26.853Z,102116.53
2022-11-27T10:35:55.461Z,102113.16
2022-11-27T10:38:26.548Z,102111.44
2022-11-27T10:41:06.451Z,102106.25
2022-11-27T10:43:35.845Z,102107.41
2022-11-27T10:46:10.533Z,102105.69
2022-11-27T10:48:38.351Z,102103.47
2022-11-27T10:51:14.930Z,102104.31
2022-11-27T10:53:44.043Z,102098.75
2022-11-27T10:56:41.314Z,102093.13
2022-11-27T10:59:14.531Z,102102.03
2022-11-27T11:01:45.713Z,102103.13
2022-11-27T11:04:36.325Z,102103.03
2022-11-27T11:07:03.472Z,102096.75
2022-11-27T11:09:32.476Z,102098.94
2022-11-27T11:12:08.530Z,102102.22
2022-11-27T11:14:36.305Z,102098.34
2022-11-27T11:17:18.582Z,102091.50
2022-11-27T11:19:46.871Z,102094.25
2022-11-27T11:22:16.602Z,102086.09
2022-11-27T11:24:48.164Z,102085.34
2022-11-27T11:27:18.154Z,102092.88
2022-11-27T11:29:50.395Z,102117.28
2022-11-27T11:32:29.494Z,102112.38
2022-11-27T11:35:01.700Z,102104.56
2022-11-27T11:37:32.214Z,102098.09
2022-11-27T11:40:01.852Z,102094.22
2022-11-27T11:42:31.785Z,102096.19
2022-11-27T11:45:04.698Z,102091.34
2022-11-27T11:47:34.364Z,102090.81
2022-11-27T11:50:02.258Z,102078.81
2022-11-27T11:52:45.317Z,102080.03
2022-11-27T11:55:20.645Z,102091.88
2022-11-27T11:58:30.171Z,102072.00
2022-11-27T12:04:07.777Z,102075.09
2022-11-27T12:06:48.657Z,102075.63
2022-11-27T12:09:28.791Z,102077.16
2022-11-27T12:12:02.237Z,102076.03
2022-11-27T12:14:42.636Z,102067.75
2022-11-27T12:17:18.809Z,102056.75
2022-11-27T12:20:00.832Z,102053.78
2022-11-27T12:22:46.008Z,102062.63
2022-11-27T12:25:28.430Z,102062.50
2022-11-27T12:28:13.275Z,102047.84
2022-11-27T12:30:49.421Z,102034.72
2022-11-27T12:33:39.043Z,102021.06
2022-11-27T12:36:17.736Z,102011.13
2022-11-27T12:38:59.594Z,102016.25
2022-11-27T12:41:57.795Z,102008.66
2022-11-27T12:44:34.070Z,102003.66
2022-11-27T12:47:06.783Z,102007.72
2022-11-27T12:49:40.732Z,102001.19
2022-11-27T12:52:15.670Z,101992.84
2022-11-27T12:54:51.136Z,101987.47
2022-11-27T12:57:24.130Z,101978.72
2022-11-27T12:59:55.647Z,101978.22
2022-11-27T13:02:32.641Z,101971.28
2022-11-27T13:05:05.360Z,101979.59
2022-11-27T13:07:42.260Z,101980.41
2022-11-27T13:10:21.640Z,101986.34
2022-11-27T13:12:55.411Z,101980.34
2022-11-27T13:15:28.978Z,101981.94
2022-11-27T13:18:03.932Z,101977.69
2022-11-27T13:20:37.770Z,101966.13
2022-11-27T13:23:06.866Z,101967.88
2022-11-27T13:25:40.622Z,101957.28
2022-11-27T13:28:09.874Z,101952.88
2022-11-27T13:30:39.258Z,101943.72
2022-11-27T13:33:08.067Z,101936.66
2022-11-27T13:35:40.036Z,101937.72
2022-11-27T13:38:12.607Z,101931.38
2022-11-27T13:40:43.127Z,101930.66
2022-11-27T13:43:23.783Z,101918.53
2022-11-27T13:45:51.966Z,101924.44
2022-11-27T13:48:30.253Z,101923.25
2022-11-27T13:50:59.261Z,101916.56
2022-11-27T13:53:36.880Z,101909.31
2022-11-27T13:56:06.110Z,101910.44
2022-11-27T13:58:35.944Z,101902.84
2022-11-27T14:01:15.498Z,101899.97
2022-11-27T14:03:43.467Z,101893.13
2022-11-27T14:06:20.125Z,101896.53
2022-11-27T14:08:56.608Z,101895.75
2022-11-27T14:11:39.863Z,101892.28
2022-11-27T14:14:18.468Z,101876.81
2022-11-27T14:16:57.490Z,101879.81
2022-11-27T14:19:33.660Z,101871.91
2022-11-27T14:22:02.077Z,101873.03
2022-11-27T14:24:41.136Z,101880.44
2022-11-27T14:27:17.615Z,101873.53
2022-11-27T14:29:46.066Z,101868.38
2022-11-27T14:32:15.784Z,101870.09
2022-11-27T14:34:44.223Z,101877.00
2022-11-27T14:37:25.780Z,101875.16
2022-11-27T14:39:55.044Z,101869.50
2022-11-27T14:42:28.551Z,101864.34
2022-11-27T14:45:13.926Z,101863.94
2022-11-27T14:47:47.235Z,101872.13
2022-11-27T14:50:15.710Z,101865.09
2022-11-27T14:52:45.190Z,101874.97
2022-11-27T14:55:17.172Z,101873.09
2022-11-27T14:57:46.762Z,101866.41
2022-11-27T15:00:20.240Z,101872.09
2022-11-27T15:02:50.691Z,101860.41
2022-11-27T15:05:19.879Z,101863.75
2022-11-27T15:07:50.908Z,101861.69
2022-11-27T15:10:28.588Z,101860.03
2022-11-27T15:12:57.619Z,101853.38
2022-11-27T15:15:27.459Z,101853.44
2022-11-27T15:17:57.755Z,101840.03
2022-11-27T15:20:29.677Z,101840.22
2022-11-27T15:22:59.707Z,101838.78
2022-11-27T15:25:37.263Z,101838.63
2022-11-27T15:28:26.037Z,101832.34
2022-11-27T15:30:54.083Z,101829.22
2022-11-27T15:33:29.705Z,101825.91
2022-11-27T15:36:16.970Z,101824.00
2022-11-27T15:38:46.527Z,101821.06
2022-11-27T15:41:24.352Z,101816.88
2022-11-27T15:43:52.789Z,101814.34
2022-11-27T15:46:26.060Z,101817.31
2022-11-27T15:48:54.056Z,101811.88
2022-11-27T15:51:21.677Z,101807.03
2022-11-27T15:53:49.344Z,101811.63
2022-11-27T15:56:17.459Z,101808.69
2022-11-27T15:58:46.419Z,101809.94
2022-11-27T16:01:14.278Z,101813.72
2022-11-27T16:03:42.121Z,101797.59
2022-11-27T16:06:10.115Z,101799.06
2022-11-27T16:08:37.786Z,101795.47
2022-11-27T16:11:07.652Z,101787.50
2022-11-27T16:13:35.373Z,101784.16
2022-11-27T16:16:08.822Z,101792.75
2022-11-27T16:18:36.706Z,101779.41
2022-11-27T16:21:05.707Z,101776.69
2022-11-27T16:23:34.145Z,101782.28
2022-11-27T16:26:02.083Z,101779.16
2022-11-27T16:28:31.669Z,101772.91
2022-11-27T16:31:03.334Z,101779.59
2022-11-27T16:33:33.554Z,101777.13
2022-11-27T16:36:06.122Z,101768.34
2022-11-27T16:38:34.199Z,101774.63
2022-11-27T16:41:03.207Z,101769.41
2022-11-27T16:43:34.543Z,101765.41
2022-11-27T16:46:06.779Z,101765.03
2022-11-27T16:48:37.643Z,101760.84
2022-11-27T16:51:06.587Z,101760.22
2022-11-27T16:53:37.783Z,101758.31
2022-11-27T16:56:05.875Z,101752.88
2022-11-27T16:58:34.946Z,101750.16
2022-11-27T17:01:05.599Z,101747.84
2022-11-27T17:03:33.737Z,101749.97
2022-11-27T17:06:07.564Z,101749.97
2022-11-27T17:08:35.264Z,101744.72
2022-11-27T17:11:08.758Z,101751.00
2022-11-27T17:13:36.487Z,101745.59
2022-11-27T17:16:05.067Z,101746.47
2022-11-27T17:18:32.742Z,101743.75
2022-11-27T17:21:07.007Z,101731.84
2022-11-27T17:23:34.645Z,101732.47
2022-11-27T17:26:07.557Z,101734.53
2022-11-27T17:28:35.541Z,101737.06
2022-11-27T17:31:03.375Z,101738.56
2022-11-27T17:33:31.004Z,101731.84
2022-11-27T17:35:59.782Z,101729.13
2022-11-27T17:38:28.792Z,101720.97
2022-11-27T17:41:01.793Z,101718.88
2022-11-27T17:43:30.405Z,101705.53
2022-11-27T17:45:58.803Z,101703.63
2022-11-27T17:48:27.180Z,101696.31
2022-11-27T17:50:55.787Z,101695.28
2022-11-27T17:53:23.449Z,101690.03
2022-11-27T17:55:52.450Z,101679.59
2022-11-27T17:58:20.099Z,101686.50
2022-11-27T18:00:47.846Z,101694.03
2022-11-27T18:03:15.582Z,101684.66
2022-11-27T18:05:43.270Z,101683.34
2022-11-27T18:08:10.983Z,101677.31
2022-11-27T18:10:38.698Z,101678.97
2022-11-27T18:13:07.697Z,101674.34
2022-11-27T18:15:35.915Z,101668.28
2022-11-27T18:18:03.596Z,101662.03
2022-11-27T18:20:31.367Z,101654.25
2022-11-27T18:22:58.976Z,101651.53
2022-11-27T18:25:26.691Z,101642.56
2022-11-27T18:27:54.302Z,101642.16
2022-11-27T18:30:23.334Z,101628.72
2022-11-27T18:32:50.974Z,101628.69
2022-11-27T18:35:18.818Z,101629.97
2022-11-27T18:37:46.467Z,101637.13
2022-11-27T18:40:14.372Z,101623.28
2022-11-27T18:42:42.175Z,101631.88
2022-11-27T18:45:31.164Z,101637.31
2022-11-27T18:47:59.285Z,101642.16
2022-11-27T18:50:29.644Z,101641.53
2022-11-27T18:52:57.704Z,101637.34
2022-11-27T18:55:25.599Z,101646.63
2022-11-27T18:57:54.083Z,101645.75
2022-11-27T19:00:22.228Z,101643.69
2022-11-27T19:02:49.953Z,101648.50
2022-11-27T19:05:18.983Z,101648.31
2022-11-27T19:07:46.750Z,101651.50
2022-11-27T19:10:14.474Z,101645.03
2022-11-27T19:12:42.102Z,101654.22
2022-11-27T19:15:10.891Z,101652.16
2022-11-27T19:17:38.552Z,101642.56
2022-11-27T19:20:08.002Z,101644.84
2022-11-27T19:22:38.756Z,101644.66
2022-11-27T19:25:07.341Z,101643.22
2022-11-27T19:27:35.005Z,101642.19
2022-11-27T19:30:02.823Z,101636.75
2022-11-27T19:32:30.487Z,101624.84
2022-11-27T19:35:00.025Z,101634.44
2022-11-27T19:37:34.877Z,101628.97
2022-11-27T19:40:05.533Z,101626.69
2022-11-27T19:42:33.438Z,101621.88
2022-11-27T19:45:01.079Z,101613.53
2022-11-27T19:47:28.766Z,101607.25
2022-11-27T19:49:56.418Z,101611.63
2022-11-27T19:52:24.096Z,101616.44
2022-11-27T19:54:51.749Z,101604.94
2022-11-27T19:57:20.737Z,101608.03
2022-11-27T19:59:48.526Z,101611.59
2022-11-27T20:02:16.202Z,101603.03
2022-11-27T20:04:44.171Z,101605.91
2022-11-27T20:07:12.087Z,101608.88
2022-11-27T20:09:39.868Z,101608.47
2022-11-27T20:12:07.567Z,101606.34
2022-11-27T20:14:37.725Z,101599.88
2022-11-27T20:17:05.493Z,101604.91
2022-11-27T20:19:33.158Z,101610.13
2022-11-27T20:22:00.811Z,101605.53
2022-11-27T20:24:28.479Z,101604.25
2022-11-27T20:26:56.124Z,101604.69
2022-11-27T20:29:23.779Z,101607.81
2022-11-27T20:31:52.801Z,101604.88
2022-11-27T20:34:22.272Z,101603.63
2022-11-27T20:36:50.237Z,101601.97
2022-11-27T20:39:21.568Z,101605.06
2022-11-27T20:41:50.572Z,101598.81
2022-11-27T20:44:18.302Z,101599.88
2022-11-27T20:46:46.108Z,101600.50
2022-11-27T20:49:15.195Z,101600.72
2022-11-27T20:51:43.191Z,101606.97
2022-11-27T20:54:12.220Z,101603.84
2022-11-27T20:56:40.850Z,101603.47
2022-11-27T20:59:08.779Z,101601.13
2022-11-27T21:01:38.063Z,101602.00
2022-11-27T21:04:09.409Z,101589.69
2022-11-27T21:06:43.789Z,101594.91
2022-11-27T21:09:13.648Z,101590.31
2022-11-27T21:11:42.086Z,101590.78
2022-11-27T21:14:11.182Z,101577.63
2022-11-27T21:16:41.796Z,101573.25
2022-11-27T21:19:14.619Z,101565.91
2022-11-27T21:21:43.969Z,101559.22
2022-11-27T21:24:12.728Z,101549.38
2022-11-27T21:26:41.517Z,101548.75
2022-11-27T21:29:09.582Z,101545.41
2022-11-27T21:31:37.909Z,101537.88
2022-11-27T21:34:07.831Z,101530.41
2022-11-27T21:36:37.391Z,101526.03
2022-11-27T21:39:09.257Z,101535.00
2022-11-27T21:41:37.487Z,101529.13
2022-11-27T21:44:06.115Z,101526.22
2022-11-27T21:46:33.769Z,101529.19
2022-11-27T21:49:02.570Z,101526.66
2022-11-27T21:51:30.568Z,101528.06
2022-11-27T21:53:59.454Z,101528.31
2022-11-27T21:56:32.203Z,101517.47
2022-11-27T21:58:59.879Z,101513.09
2022-11-27T22:01:28.985Z,101510.38
2022-11-27T22:03:58.293Z,101516.00
2022-11-27T22:06:28.738Z,101512.88
2022-11-27T22:08:58.695Z,101521.03
2022-11-27T22:11:30.363Z,101525.44
2022-11-27T22:13:59.000Z,101522.09
2022-11-27T22:16:29.063Z,101526.06
2022-11-27T22:18:58.055Z,101533.41
2022-11-27T22:21:27.210Z,101526.28
2022-11-27T22:23:55.317Z,101529.22
2022-11-27T22:26:24.319Z,101523.56
2022-11-27T22:28:53.478Z,101517.50
2022-11-27T22:31:23.958Z,101525.25
2022-11-27T22:33:51.774Z,101525.03
2022-11-27T22:36:21.646Z,101527.31
2022-11-27T22:38:51.195Z,101520.47
2022-11-27T22:41:20.592Z,101523.38
2022-11-27T22:43:48.836Z,101520.03
2022-11-27T22:46:19.943Z,101516.09
2022-11-27T22:48:48.010Z,101516.31
2022-11-27T22:51:15.671Z,101510.06
2022-11-27T22:53:43.331Z,101505.06
2022-11-27T22:56:13.266Z,101514.69
2022-11-27T22:58:42.152Z,101508.16
2022-11-27T23:01:11.018Z,101502.13
2022-11-27T23:03:40.173Z,101499.41
2022-11-27T23:06:11.731Z,101499.84
2022-11-27T23:08:39.922Z,101493.34
2022-11-27T23:11:07.988Z,101494.63
2022-11-27T23:13:35.921Z,101490.47
2022-11-27T23:16:03.834Z,101496.50
2022-11-27T23:18:31.611Z,101481.25
2022-11-27T23:21:00.663Z,101495.88
2022-11-27T23:23:28.277Z,101488.38
2022-11-27T23:25:55.902Z,101483.38
2022-11-27T23:28:23.524Z,101472.69
2022-11-27T23:31:08.645Z,101481.28
2022-11-27T23:33:40.026Z,101472.06
2022-11-27T23:36:10.171Z,101476.63
2022-11-27T23:38:40.828Z,101466.44
2022-11-27T23:41:10.219Z,101463.31
2022-11-27T23:43:38.328Z,101471.66
2022-11-27T23:46:06.503Z,101474.63
2022-11-27T23:48:34.500Z,101473.56
2022-11-27T23:51:09.517Z,101459.38
2022-11-27T23:53:37.251Z,101463.31
2022-11-27T23:56:07.084Z,101464.38
2022-11-27T23:58:34.799Z,101459.16
